Lake Emma, Minnesota
Current Conditions -  °F | °C
As of 7:53 PM on Sunday 25 Jan 2015 (Local Time) from KPKD Reporting Station
Few Clouds Few Clouds  
Wind Chill: 16°   Ceiling: Unl
Heat Index: 25°   Visibility: 10mi
Dew Point: 19°   Wind: 8mph
Humidity: 78%   Direction: 170°S
Pressure: 29.9"   Gusts: NA
Location:  46.9966°N, 95.0029°W
Report Text: KPKD 260153Z AUTO 17007KT 10SM FEW019 M04/M07 A2990 RMK AO2 SLP150 T10391072
Loading
Personal Weather Stations






























Interactive Weather Map New forecast layout! Learn more

10-Day Weather Forecast

Advertisements
Track Severe Weather on mobile